createdAt,value
2019-03-20T00:01:52.839Z,102710.81
2019-03-20T00:04:21.426Z,102709.11
2019-03-20T00:06:50.549Z,102704.34
2019-03-20T00:09:19.081Z,102699.92
2019-03-20T00:11:47.605Z,102695.45
2019-03-20T00:14:16.437Z,102695.12
2019-03-20T00:16:44.952Z,102696.20
2019-03-20T00:19:13.838Z,102698.31
2019-03-20T00:21:42.354Z,102701.25
2019-03-20T00:24:10.853Z,102702.62
2019-03-20T00:26:39.403Z,102696.82
2019-03-20T00:29:07.945Z,102695.45
2019-03-20T00:31:36.493Z,102693.73
2019-03-20T00:34:05.015Z,102636.30
2019-03-20T00:36:33.587Z,102696.48
2019-03-20T00:39:02.093Z,102699.23
2019-03-20T00:41:33.605Z,102689.83
2019-03-20T00:44:02.139Z,102689.83
2019-03-20T00:46:30.664Z,102689.83
2019-03-20T00:48:59.223Z,102682.95
2019-03-20T00:51:29.814Z,102681.88
2019-03-20T00:53:58.011Z,102690.56
2019-03-20T00:56:26.586Z,102691.50
2019-03-20T00:58:55.137Z,102694.13
2019-03-20T01:01:23.636Z,102700.89
2019-03-20T01:03:52.155Z,102696.66
2019-03-20T01:06:20.739Z,102686.72
2019-03-20T01:08:49.263Z,102681.11
2019-03-20T01:11:17.780Z,102679.09
2019-03-20T01:13:46.651Z,102677.91
2019-03-20T01:16:15.158Z,102675.16
2019-03-20T01:18:43.660Z,102675.70
2019-03-20T01:21:12.169Z,102678.98
2019-03-20T01:23:40.691Z,102677.27
2019-03-20T01:26:09.196Z,102680.02
2019-03-20T01:28:37.712Z,102679.38
2019-03-20T01:31:06.235Z,102679.91
2019-03-20T01:33:35.251Z,102677.03
2019-03-20T01:36:03.772Z,102672.61
2019-03-20T01:38:32.292Z,102676.40
2019-03-20T01:41:00.803Z,102669.22
2019-03-20T01:43:29.597Z,102672.27
2019-03-20T01:45:58.141Z,102670.59
2019-03-20T01:48:26.705Z,102666.99
2019-03-20T01:50:55.199Z,102673.02
2019-03-20T01:53:24.069Z,102671.30
2019-03-20T01:55:52.614Z,102668.77
2019-03-20T01:58:21.150Z,102670.66
2019-03-20T02:00:49.735Z,102667.61
2019-03-20T02:03:18.279Z,102662.42
2019-03-20T02:05:46.820Z,102667.91
2019-03-20T02:08:15.364Z,102669.29
2019-03-20T02:10:43.861Z,102664.86
2019-03-20T02:13:12.366Z,102663.48
2019-03-20T02:15:40.885Z,102659.03
2019-03-20T02:18:09.405Z,102650.48
2019-03-20T02:20:37.923Z,102646.02
2019-03-20T02:23:06.465Z,102648.77
2019-03-20T02:25:35.240Z,102644.31
2019-03-20T02:28:03.775Z,102645.69
2019-03-20T02:30:32.278Z,102646.76
2019-03-20T02:33:00.799Z,102637.99
2019-03-20T02:35:29.607Z,102633.53
2019-03-20T02:37:58.087Z,102630.27
2019-03-20T02:40:26.627Z,102629.93
2019-03-20T02:42:55.155Z,102625.80
2019-03-20T02:45:23.675Z,102633.02
2019-03-20T02:47:52.191Z,102622.20
2019-03-20T02:50:20.744Z,102631.00
2019-03-20T02:52:49.277Z,102632.89
2019-03-20T02:55:17.794Z,102631.73
2019-03-20T02:57:46.360Z,102636.91
2019-03-20T03:00:15.215Z,102636.91
2019-03-20T03:02:43.690Z,102636.38
2019-03-20T03:05:12.578Z,102635.01
2019-03-20T03:07:41.173Z,102637.42
2019-03-20T03:10:10.186Z,102632.44
2019-03-20T03:12:38.804Z,102632.44
2019-03-20T03:15:07.622Z,102620.92
2019-03-20T03:17:36.514Z,102619.44
2019-03-20T03:20:05.643Z,102617.55
2019-03-20T03:22:34.191Z,102613.09
2019-03-20T03:25:02.696Z,102610.67
2019-03-20T03:27:31.215Z,102622.19
2019-03-20T03:29:59.735Z,102616.69
2019-03-20T03:32:28.553Z,102616.91
2019-03-20T03:34:57.065Z,102616.05
2019-03-20T03:37:25.595Z,102609.52
2019-03-20T03:39:54.375Z,102613.83
2019-03-20T03:42:22.899Z,102618.80
2019-03-20T03:44:51.433Z,102618.50
2019-03-20T03:47:20.057Z,102625.37
2019-03-20T03:49:48.600Z,102625.89
2019-03-20T03:52:17.267Z,102616.45
2019-03-20T03:54:45.765Z,102616.45
2019-03-20T03:57:14.273Z,102607.91
2019-03-20T03:59:42.785Z,102605.16
2019-03-20T04:02:11.393Z,102603.27
2019-03-20T04:04:39.889Z,102601.55
2019-03-20T04:07:08.414Z,102607.38
2019-03-20T04:09:36.961Z,102608.20
2019-03-20T04:12:05.477Z,102602.41
2019-03-20T04:14:34.081Z,102611.17
2019-03-20T04:17:02.607Z,102611.17
2019-03-20T04:19:31.121Z,102610.32
2019-03-20T04:21:59.706Z,102614.44
2019-03-20T04:24:28.483Z,102617.19
2019-03-20T04:26:57.034Z,102615.18
2019-03-20T04:29:25.555Z,102620.16
2019-03-20T04:31:54.246Z,102626.51
2019-03-20T04:34:22.847Z,102621.83
2019-03-20T04:36:51.360Z,102627.33
2019-03-20T04:39:19.908Z,102629.56
2019-03-20T04:41:48.667Z,102626.81
2019-03-20T04:44:17.195Z,102621.83
2019-03-20T04:46:45.690Z,102629.56
2019-03-20T04:49:14.239Z,102629.26
2019-03-20T04:51:42.750Z,102634.42
2019-03-20T04:54:11.296Z,102639.92
2019-03-20T04:56:39.815Z,102636.31
2019-03-20T04:59:08.381Z,102640.98
2019-03-20T05:01:36.912Z,102630.30
2019-03-20T05:04:05.463Z,102626.70
2019-03-20T05:06:33.982Z,102627.55
2019-03-20T05:09:04.436Z,102620.37
2019-03-20T05:11:32.975Z,102622.27
2019-03-20T05:14:01.498Z,102622.05
2019-03-20T05:16:30.014Z,102624.16
2019-03-20T05:18:58.854Z,102627.95
2019-03-20T05:21:27.397Z,102628.98
2019-03-20T05:23:56.026Z,102627.28
2019-03-20T05:26:24.567Z,102631.10
2019-03-20T05:28:53.394Z,102639.13
2019-03-20T05:31:21.999Z,102634.48
2019-03-20T05:33:50.519Z,102633.97
2019-03-20T05:36:19.031Z,102636.05
2019-03-20T05:38:47.541Z,102638.61
2019-03-20T05:41:16.127Z,102646.52
2019-03-20T05:43:44.930Z,102641.88
2019-03-20T05:46:13.503Z,102642.09
2019-03-20T05:48:42.641Z,102635.11
2019-03-20T05:51:11.295Z,102635.28
2019-03-20T05:53:39.798Z,102641.64
2019-03-20T05:56:08.335Z,102639.11
2019-03-20T05:58:37.163Z,102638.25
2019-03-20T06:01:05.939Z,102640.48
2019-03-20T06:03:34.438Z,102638.03
2019-03-20T06:06:03.341Z,102637.84
2019-03-20T06:08:31.984Z,102643.66
2019-03-20T06:11:00.836Z,102656.02
2019-03-20T06:13:29.629Z,102650.00
2019-03-20T06:15:58.164Z,102648.11
2019-03-20T06:18:26.997Z,102653.08
2019-03-20T06:20:55.492Z,102652.75
2019-03-20T06:23:24.010Z,102658.89
2019-03-20T06:25:52.519Z,102656.66
2019-03-20T06:28:21.061Z,102651.72
2019-03-20T06:30:49.567Z,102661.63
2019-03-20T06:33:18.085Z,102646.52
2019-03-20T06:35:46.625Z,102646.85
2019-03-20T06:38:15.162Z,102652.35
2019-03-20T06:40:43.658Z,102655.09
2019-03-20T06:43:12.514Z,102661.63
2019-03-20T06:45:41.014Z,102660.59
2019-03-20T06:48:09.607Z,102661.45
2019-03-20T06:50:38.134Z,102669.70
2019-03-20T06:53:06.662Z,102667.47
2019-03-20T06:55:35.303Z,102675.19
2019-03-20T06:58:03.831Z,102676.05
2019-03-20T07:00:51.529Z,102676.05
2019-03-20T07:03:48.080Z,102669.52
2019-03-20T07:06:39.376Z,102671.41
2019-03-20T07:09:12.584Z,102673.30
2019-03-20T07:11:41.355Z,102665.05
2019-03-20T07:14:09.867Z,102675.53
2019-03-20T07:16:38.447Z,102672.78
2019-03-20T07:19:06.901Z,102676.72
2019-03-20T07:21:35.425Z,102679.47
2019-03-20T07:24:03.972Z,102666.77
2019-03-20T07:26:32.482Z,102674.16
2019-03-20T07:29:01.059Z,102671.92
2019-03-20T07:31:29.991Z,102677.42
2019-03-20T07:33:58.519Z,102677.42
2019-03-20T07:36:27.033Z,102669.70
2019-03-20T07:38:55.533Z,102671.59
2019-03-20T07:41:24.055Z,102668.20
2019-03-20T07:43:52.858Z,102669.88
2019-03-20T07:46:21.382Z,102663.01
2019-03-20T07:48:49.912Z,102665.45
2019-03-20T07:51:18.388Z,102663.52
2019-03-20T07:53:46.913Z,102671.59
2019-03-20T07:56:15.427Z,102675.19
2019-03-20T07:58:43.946Z,102678.46
2019-03-20T08:01:12.444Z,102685.33
2019-03-20T08:03:41.210Z,102682.06
2019-03-20T08:06:09.975Z,102678.46
2019-03-20T08:08:38.497Z,102677.61
2019-03-20T08:11:07.023Z,102684.48
2019-03-20T08:13:35.847Z,102684.48
2019-03-20T08:16:04.401Z,102688.08
2019-03-20T08:18:32.895Z,102680.87
2019-03-20T08:21:01.402Z,102680.87
2019-03-20T08:23:29.922Z,102680.57
2019-03-20T08:25:58.431Z,102687.44
2019-03-20T08:28:26.937Z,102684.69
2019-03-20T08:30:55.462Z,102690.38
2019-03-20T08:33:24.226Z,102690.89
2019-03-20T08:35:53.022Z,102686.47
2019-03-20T08:38:21.534Z,102690.59
2019-03-20T08:40:50.042Z,102691.95
2019-03-20T08:43:18.573Z,102696.08
2019-03-20T08:45:47.450Z,102698.49
2019-03-20T08:48:15.932Z,102693.00
2019-03-20T08:50:44.527Z,102690.98
2019-03-20T08:53:13.042Z,102693.55
2019-03-20T08:55:41.549Z,102694.37
2019-03-20T08:58:10.034Z,102704.54
2019-03-20T09:00:38.527Z,102700.08
2019-03-20T09:03:07.046Z,102704.72
2019-03-20T09:05:35.575Z,102708.66
2019-03-20T09:08:04.074Z,102706.73
2019-03-20T09:10:32.645Z,102708.66
2019-03-20T09:13:01.177Z,102702.62
2019-03-20T09:15:29.669Z,102703.98
2019-03-20T09:17:58.199Z,102708.66
2019-03-20T09:20:26.763Z,102704.54
2019-03-20T09:22:55.256Z,102694.70
2019-03-20T09:25:23.786Z,102699.87
2019-03-20T09:27:52.306Z,102708.97
2019-03-20T09:30:20.831Z,102702.31
2019-03-20T09:32:49.361Z,102711.08
2019-03-20T09:35:17.904Z,102709.70
2019-03-20T09:37:51.898Z,102711.59
2019-03-20T09:40:17.015Z,102717.09
2019-03-20T09:42:45.537Z,102712.97
2019-03-20T09:45:15.138Z,102715.72
2019-03-20T09:47:44.371Z,102717.43
2019-03-20T09:50:14.637Z,102716.91
2019-03-20T09:52:43.148Z,102710.55
2019-03-20T09:55:11.719Z,102711.08
2019-03-20T09:57:40.230Z,102711.08
2019-03-20T10:00:16.975Z,102714.86
2019-03-20T10:02:45.801Z,102719.84
2019-03-20T10:05:14.393Z,102729.16
2019-03-20T10:07:42.930Z,102730.53
2019-03-20T10:10:13.355Z,102734.31
2019-03-20T10:12:42.186Z,102735.17
2019-03-20T10:15:11.729Z,102728.81
2019-03-20T10:17:40.279Z,102725.20
2019-03-20T10:20:10.003Z,102715.81
2019-03-20T10:22:39.054Z,102710.62
2019-03-20T10:25:08.543Z,102715.59
2019-03-20T10:27:37.389Z,102710.95
2019-03-20T10:30:08.063Z,102708.54
2019-03-20T10:32:36.762Z,102706.09
2019-03-20T10:35:06.455Z,102707.29
2019-03-20T10:37:34.968Z,102718.28
2019-03-20T10:40:03.494Z,102727.56
2019-03-20T10:42:32.329Z,102723.96
2019-03-20T10:45:00.832Z,102726.70
2019-03-20T10:47:29.370Z,102730.83
2019-03-20T10:49:57.875Z,102735.47
2019-03-20T10:52:26.435Z,102742.89
2019-03-20T10:54:54.978Z,102750.80
2019-03-20T10:57:23.506Z,102759.05
2019-03-20T10:59:52.325Z,102750.46
2019-03-20T11:02:20.860Z,102750.46
2019-03-20T11:04:49.361Z,102747.07
2019-03-20T11:07:18.183Z,102752.56
2019-03-20T11:09:46.673Z,102754.49
2019-03-20T11:12:15.238Z,102763.56
2019-03-20T11:14:43.714Z,102759.65
2019-03-20T11:17:12.233Z,102758.80
2019-03-20T11:19:40.792Z,102763.25
2019-03-20T11:22:18.256Z,102764.63
2019-03-20T11:24:39.875Z,102765.66
2019-03-20T11:27:08.398Z,102764.29
2019-03-20T11:29:36.911Z,102768.11
2019-03-20T11:32:05.417Z,102778.03
2019-03-20T11:34:34.017Z,102775.80
2019-03-20T11:37:02.551Z,102766.39
2019-03-20T11:39:31.064Z,102773.60
2019-03-20T11:41:59.699Z,102771.38
2019-03-20T11:44:28.187Z,102769.14
2019-03-20T11:46:56.730Z,102771.38
2019-03-20T11:49:25.245Z,102767.25
2019-03-20T11:51:54.112Z,102772.74
2019-03-20T11:54:22.618Z,102774.98
2019-03-20T11:56:51.133Z,102779.80
2019-03-20T11:59:19.689Z,102782.36
2019-03-20T12:01:48.210Z,102778.42
2019-03-20T12:04:17.028Z,102778.42
2019-03-20T12:06:45.534Z,102792.16
2019-03-20T12:09:14.025Z,102783.27
2019-03-20T12:11:46.139Z,102785.50
2019-03-20T12:14:12.795Z,102783.27
2019-03-20T12:16:41.294Z,102790.35
2019-03-20T12:19:10.179Z,102789.83
2019-03-20T12:21:39.047Z,102793.09
2019-03-20T12:24:07.578Z,102796.36
2019-03-20T12:26:36.143Z,102799.97
2019-03-20T12:29:04.633Z,102799.11
2019-03-20T12:31:33.485Z,102790.56
2019-03-20T12:34:02.353Z,102789.49
2019-03-20T12:36:30.898Z,102788.12
2019-03-20T12:38:59.434Z,102789.19
2019-03-20T12:41:27.943Z,102777.12
2019-03-20T12:43:56.462Z,102775.45
2019-03-20T12:46:24.980Z,102767.73
2019-03-20T12:48:53.501Z,102768.58
2019-03-20T12:51:22.038Z,102767.20
2019-03-20T12:53:50.558Z,102772.70
2019-03-20T12:56:19.345Z,102768.58
2019-03-20T12:58:47.869Z,102758.63
2019-03-20T13:01:16.388Z,102762.88
2019-03-20T13:03:44.887Z,102760.12
2019-03-20T13:06:13.415Z,102761.84
2019-03-20T13:08:41.942Z,102764.03
2019-03-20T13:11:10.801Z,102765.41
2019-03-20T13:13:39.306Z,102770.17
2019-03-20T13:16:07.826Z,102776.34
2019-03-20T13:18:36.350Z,102772.87
2019-03-20T13:21:04.852Z,102768.02
2019-03-20T13:23:33.393Z,102760.94
2019-03-20T13:26:01.894Z,102768.78
2019-03-20T13:28:30.433Z,102766.16
2019-03-20T13:31:01.800Z,102758.56
2019-03-20T13:33:30.307Z,102759.54
2019-03-20T13:35:58.821Z,102762.96
2019-03-20T13:38:27.327Z,102755.87
2019-03-20T13:40:55.850Z,102757.38
2019-03-20T13:43:24.404Z,102751.14
2019-03-20T13:45:53.230Z,102749.59
2019-03-20T13:48:22.015Z,102749.07
2019-03-20T13:50:50.543Z,102752.98
2019-03-20T13:53:19.043Z,102754.99
2019-03-20T13:55:47.545Z,102749.28
2019-03-20T13:58:16.079Z,102753.00
2019-03-20T14:00:44.843Z,102757.98
2019-03-20T14:03:13.362Z,102758.11
2019-03-20T14:05:41.942Z,102758.41
2019-03-20T14:08:10.451Z,102764.25
2019-03-20T14:10:49.686Z,102764.58
2019-03-20T14:13:09.480Z,102768.70
2019-03-20T14:15:37.989Z,102764.58
2019-03-20T14:18:06.487Z,102764.03
2019-03-20T14:20:34.976Z,102762.66
2019-03-20T14:23:03.495Z,102763.84
2019-03-20T14:25:32.258Z,102762.66
2019-03-20T14:28:00.777Z,102761.63
2019-03-20T14:30:29.561Z,102765.22
2019-03-20T14:32:58.247Z,102768.83
2019-03-20T14:35:26.765Z,102761.95
2019-03-20T14:37:55.273Z,102767.75
2019-03-20T14:40:35.255Z,102758.66
2019-03-20T14:42:55.939Z,102763.63
2019-03-20T14:45:24.411Z,102765.01
2019-03-20T14:47:52.954Z,102763.97
2019-03-20T14:50:23.223Z,102758.66
2019-03-20T14:52:51.762Z,102756.76
2019-03-20T14:55:20.280Z,102759.30
2019-03-20T14:57:48.838Z,102762.59
2019-03-20T15:00:19.396Z,102772.73
2019-03-20T15:02:47.882Z,102777.72
2019-03-20T15:05:16.458Z,102775.15
2019-03-20T15:07:44.960Z,102783.09
2019-03-20T15:10:15.379Z,102781.91
2019-03-20T15:12:43.961Z,102781.39
2019-03-20T15:15:36.004Z,102788.78
2019-03-20T15:18:04.525Z,102789.33
2019-03-20T15:20:33.111Z,102787.95
2019-03-20T15:23:01.625Z,102791.74
2019-03-20T15:25:30.132Z,102784.02
2019-03-20T15:27:58.918Z,102786.45
2019-03-20T15:30:29.590Z,102776.28
2019-03-20T15:32:58.117Z,102774.91
2019-03-20T15:35:26.630Z,102779.03
2019-03-20T15:37:55.167Z,102776.84
2019-03-20T15:40:23.736Z,102776.28
2019-03-20T15:42:52.331Z,102771.12
2019-03-20T15:45:20.838Z,102772.50
2019-03-20T15:47:49.368Z,102775.58
2019-03-20T15:50:17.963Z,102774.20
2019-03-20T15:52:46.463Z,102774.51
2019-03-20T15:55:17.630Z,102773.99
2019-03-20T15:57:46.444Z,102774.84
2019-03-20T16:00:16.837Z,102772.09
2019-03-20T16:02:45.534Z,102773.47
2019-03-20T16:05:14.043Z,102777.59
2019-03-20T16:07:42.568Z,102777.08
2019-03-20T16:10:13.834Z,102778.64
2019-03-20T16:12:42.358Z,102794.42
2019-03-20T16:15:12.543Z,102792.27
2019-03-20T16:17:41.060Z,102797.20
2019-03-20T16:20:10.133Z,102796.00
2019-03-20T16:22:38.647Z,102791.73
2019-03-20T16:25:07.690Z,102782.31
2019-03-20T16:27:36.558Z,102782.11
2019-03-20T16:30:05.889Z,102786.09
2019-03-20T16:32:34.390Z,102786.02
2019-03-20T16:35:02.912Z,102788.08
2019-03-20T16:37:31.424Z,102796.53
2019-03-20T16:39:59.928Z,102796.75
2019-03-20T16:42:28.449Z,102795.12
2019-03-20T16:44:56.972Z,102800.73
2019-03-20T16:47:25.499Z,102796.75
2019-03-20T16:49:54.017Z,102807.34
2019-03-20T16:52:22.533Z,102809.36
2019-03-20T16:54:51.057Z,102811.05
2019-03-20T16:57:21.764Z,102813.92
2019-03-20T16:59:50.123Z,102827.78
2019-03-20T17:02:18.671Z,102831.39
2019-03-20T17:04:47.234Z,102831.18
2019-03-20T17:07:15.727Z,102836.16
2019-03-20T17:09:44.235Z,102837.53
2019-03-20T17:12:12.740Z,102835.64
2019-03-20T17:14:41.846Z,102840.10
2019-03-20T17:17:10.345Z,102845.42
2019-03-20T17:19:38.849Z,102841.09
2019-03-20T17:22:07.357Z,102842.80
2019-03-20T17:24:35.885Z,102846.41
2019-03-20T17:27:04.409Z,102842.46
2019-03-20T17:29:32.933Z,102838.89
2019-03-20T17:32:01.451Z,102846.80
2019-03-20T17:34:30.683Z,102845.22
2019-03-20T17:36:59.592Z,102841.09
2019-03-20T17:39:28.148Z,102834.80
2019-03-20T17:41:56.706Z,102841.83
2019-03-20T17:44:25.216Z,102841.33
2019-03-20T17:46:53.758Z,102843.62
2019-03-20T17:49:22.533Z,102840.32
2019-03-20T17:51:51.039Z,102851.62
2019-03-20T17:54:19.574Z,102850.86
2019-03-20T17:56:48.080Z,102847.19
2019-03-20T17:59:16.610Z,102849.83
2019-03-20T18:01:45.145Z,102853.06
2019-03-20T18:04:13.767Z,102848.27
2019-03-20T18:06:42.612Z,102849.56
2019-03-20T18:09:11.118Z,102853.77
2019-03-20T18:11:47.163Z,102847.34
2019-03-20T18:14:09.934Z,102851.78
2019-03-20T18:16:38.501Z,102858.10
2019-03-20T18:19:07.363Z,102853.13
2019-03-20T18:21:36.158Z,102859.86
2019-03-20T18:24:04.670Z,102866.29
2019-03-20T18:26:33.186Z,102873.20
2019-03-20T18:29:01.718Z,102872.20
2019-03-20T18:31:30.298Z,102886.20
2019-03-20T18:33:59.053Z,102882.00
2019-03-20T18:36:27.593Z,102888.78
2019-03-20T18:38:56.099Z,102890.28
2019-03-20T18:41:24.637Z,102884.91
2019-03-20T18:43:53.209Z,102885.55
2019-03-20T18:46:21.742Z,102889.80
2019-03-20T18:48:50.283Z,102891.00
2019-03-20T18:51:18.799Z,102889.92
2019-03-20T18:53:47.820Z,102887.81
2019-03-20T18:56:16.650Z,102893.32
2019-03-20T18:58:45.131Z,102892.28
2019-03-20T19:01:13.988Z,102882.44
2019-03-20T19:03:44.502Z,102886.69
2019-03-20T19:06:16.567Z,102893.05
2019-03-20T19:08:45.088Z,102890.81
2019-03-20T19:11:13.695Z,102887.20
2019-03-20T19:13:42.520Z,102891.03
2019-03-20T19:16:11.117Z,102892.59
2019-03-20T19:18:39.663Z,102894.17
2019-03-20T19:21:08.188Z,102894.39
2019-03-20T19:23:36.727Z,102891.30
2019-03-20T19:26:05.295Z,102889.50
2019-03-20T19:28:33.831Z,102885.03
2019-03-20T19:31:02.332Z,102881.42
2019-03-20T19:33:31.221Z,102896.77
2019-03-20T19:35:59.802Z,102892.00
2019-03-20T19:38:34.784Z,102892.18
2019-03-20T19:40:59.615Z,102903.39
2019-03-20T19:43:28.405Z,102901.89
2019-03-20T19:45:56.906Z,102901.03
2019-03-20T19:48:25.469Z,102902.11
2019-03-20T19:50:53.978Z,102902.28
2019-03-20T19:53:22.505Z,102911.91
2019-03-20T19:55:52.001Z,102913.28
2019-03-20T19:58:20.566Z,102913.28
2019-03-20T20:00:49.593Z,102916.03
2019-03-20T20:03:18.504Z,102922.91
2019-03-20T20:05:47.091Z,102922.39
2019-03-20T20:08:15.610Z,102918.27
2019-03-20T20:10:44.134Z,102930.98
2019-03-20T20:13:12.686Z,102920.50
2019-03-20T20:15:41.163Z,102922.39
2019-03-20T20:18:09.675Z,102925.99
2019-03-20T20:20:38.214Z,102922.39
2019-03-20T20:23:07.006Z,102921.87
2019-03-20T20:25:35.876Z,102922.39
2019-03-20T20:28:04.363Z,102922.39
2019-03-20T20:30:32.877Z,102926.34
2019-03-20T20:33:01.402Z,102924.28
2019-03-20T20:35:29.928Z,102926.52
2019-03-20T20:37:58.449Z,102927.03
2019-03-20T20:40:27.031Z,102923.97
2019-03-20T20:42:55.547Z,102924.50
2019-03-20T20:45:24.315Z,102930.51
2019-03-20T20:47:53.199Z,102929.99
2019-03-20T20:50:22.207Z,102927.77
2019-03-20T20:52:50.709Z,102933.60
2019-03-20T20:55:19.230Z,102932.74
2019-03-20T20:57:47.749Z,102941.20
2019-03-20T21:00:18.255Z,102943.95
2019-03-20T21:02:46.753Z,102948.94
2019-03-20T21:05:15.251Z,102937.59
2019-03-20T21:07:43.867Z,102938.12
2019-03-20T21:10:13.510Z,102944.98
2019-03-20T21:12:42.883Z,102946.36
2019-03-20T21:15:33.631Z,102946.36
2019-03-20T21:18:42.736Z,102940.56
2019-03-20T21:21:11.845Z,102945.72
2019-03-20T21:24:16.830Z,102941.59
2019-03-20T21:27:16.487Z,102937.47
2019-03-20T21:30:10.242Z,102946.75
2019-03-20T21:32:41.262Z,102946.45
2019-03-20T21:35:53.067Z,102951.95
2019-03-20T21:38:20.430Z,102953.32
2019-03-20T21:41:03.542Z,102952.80
2019-03-20T21:44:09.765Z,102945.59
2019-03-20T21:47:12.723Z,102942.84
2019-03-20T21:49:42.042Z,102950.23
2019-03-20T21:52:11.070Z,102948.00
2019-03-20T21:55:30.362Z,102920.28
2019-03-20T21:58:20.409Z,102951.61
2019-03-20T22:01:41.180Z,102946.11
2019-03-20T22:04:10.289Z,102953.84
2019-03-20T22:07:22.237Z,102957.96
2019-03-20T22:10:33.880Z,102962.60
2019-03-20T22:13:36.002Z,102959.34
2019-03-20T22:16:46.070Z,102961.23
2019-03-20T22:19:51.935Z,102966.21
2019-03-20T22:22:56.864Z,102960.71
2019-03-20T22:26:17.771Z,102960.19
2019-03-20T22:29:23.384Z,102967.59
2019-03-20T22:32:11.256Z,102967.59
2019-03-20T22:34:55.311Z,102968.10
2019-03-20T22:37:24.346Z,102973.94
2019-03-20T22:40:34.387Z,102972.56
2019-03-20T22:43:34.391Z,102973.09
2019-03-20T22:46:55.686Z,102978.58
2019-03-20T22:50:00.647Z,102980.99
2019-03-20T22:52:53.270Z,102976.05
2019-03-20T22:55:37.386Z,102971.71
2019-03-20T22:58:43.966Z,102974.67
2019-03-20T23:01:36.557Z,102978.25
2019-03-20T23:04:10.530Z,102974.98
2019-03-20T23:06:39.643Z,102979.44
2019-03-20T23:09:09.055Z,102979.09
2019-03-20T23:11:38.237Z,102978.06
2019-03-20T23:14:07.366Z,102979.95
2019-03-20T23:16:36.426Z,102982.19
2019-03-20T23:19:05.570Z,102973.09
2019-03-20T23:21:34.614Z,102975.31
2019-03-20T23:24:03.746Z,102979.44
2019-03-20T23:26:32.819Z,102986.63
2019-03-20T23:29:01.936Z,102982.50
2019-03-20T23:31:31.015Z,102983.05
2019-03-20T23:34:00.073Z,102980.81
2019-03-20T23:36:29.139Z,102977.00
2019-03-20T23:38:58.282Z,102988.00
2019-03-20T23:41:27.331Z,102978.38
2019-03-20T23:43:56.468Z,102979.75
2019-03-20T23:46:25.894Z,102977.00
2019-03-20T23:49:05.016Z,102974.25
2019-03-20T23:51:34.370Z,102970.67
2019-03-20T23:54:03.461Z,102970.13
2019-03-20T23:56:33.621Z,102967.38
2019-03-20T23:59:02.789Z,102962.42
